Time;durP1;ratioP1;P1;durP2;ratioP2;P2;SDS_P1;SDS_P2;PMS_P1;PMS_P2;Temp;Humidity;BMP_temperature;BMP_pressure;BME280_temperature;BME280_humidity;BME280_pressure;Samples;Min_cycle;Max_cycle;Signal;HPM_P1;HPM_P2
2023/02/01 00:02:01;;;;;;;;;;;;;;;4.79;100.00;101892.69;5005213;28;20393;-67
2023/02/01 00:04:27;;;;;;;;;;;;;;;4.73;100.00;101892.06;4994878;28;20317;-67
2023/02/01 00:06:54;;;;;;;;;;;;;;;4.75;100.00;101884.19;4998743;28;19930;-66
2023/02/01 00:09:20;;;;;;;;;;;;;;;4.72;100.00;101876.56;4998588;28;20012;-67
2023/02/01 00:11:46;;;;;;;;;;;;;;;4.72;100.00;101863.56;4980052;28;19934;-67
2023/02/01 00:14:13;;;;;;;;;;;;;;;4.74;100.00;101879.91;4999357;28;19930;-67
2023/02/01 00:16:39;;;;;;;;;;;;;;;4.72;100.00;101885.22;5005691;28;19937;-66
2023/02/01 00:19:07;;;;;;;;;;;;;;;4.74;100.00;101869.50;5005194;28;19929;-67
2023/02/01 00:21:33;;;;;;;;;;;;;;;4.75;100.00;101869.44;4999612;28;19930;-67
2023/02/01 00:24:00;;;;;;;;;;;;;;;4.75;100.00;101872.03;4995464;28;19929;-67
2023/02/01 00:26:33;;;;;;;;;;;;;;;4.73;100.00;101860.06;4993968;28;20284;-66
2023/02/01 00:29:01;;;;;;;;;;;;;;;4.76;100.00;101870.25;5004325;28;20302;-66
2023/02/01 00:31:28;;;;;;;;;;;;;;;4.78;100.00;101868.41;4994667;28;20985;-67
2023/02/01 00:33:55;;;;;;;;;;;;;;;4.81;100.00;101859.63;5004431;28;20404;-67
2023/02/01 00:36:21;;;;;;;;;;;;;;;4.77;100.00;101852.94;5003486;28;19929;-67
2023/02/01 00:38:47;;;;;;;;;;;;;;;4.80;100.00;101858.78;4993682;28;19929;-67
2023/02/01 00:41:15;;;;;;;;;;;;;;;4.80;100.00;101858.78;5004276;28;19929;-66
2023/02/01 00:43:41;;;;;;;;;;;;;;;4.81;100.00;101852.66;4996457;28;19929;-67
2023/02/01 00:46:08;;;;;;;;;;;;;;;4.81;100.00;101865.66;5003144;28;19929;-67
2023/02/01 00:48:35;;;;;;;;;;;;;;;4.84;100.00;101868.13;4998658;28;19958;-67
2023/02/01 00:51:02;;;;;;;;;;;;;;;4.80;100.00;101852.75;5000082;28;19935;-67
2023/02/01 00:53:29;;;;;;;;;;;;;;;4.80;100.00;101842.34;5000449;28;19984;-66
2023/02/01 00:55:56;;;;;;;;;;;;;;;4.81;100.00;101842.28;4997812;28;19930;-67
2023/02/01 00:58:25;;;;;;;;;;;;;;;4.81;100.00;101851.84;5003396;28;19936;-67
2023/02/01 01:01:03;;;;;;;;;;;;;;;4.84;100.00;101852.50;4993040;28;19935;-67
2023/02/01 01:03:33;;;;;;;;;;;;;;;4.81;100.00;101844.03;5000288;28;20680;-67
2023/02/01 01:06:00;;;;;;;;;;;;;;;4.81;100.00;101850.06;4993435;28;20047;-67
2023/02/01 01:08:27;;;;;;;;;;;;;;;4.85;100.00;101845.56;5001838;28;19939;-67
2023/02/01 01:10:53;;;;;;;;;;;;;;;4.80;100.00;101847.56;5002603;28;19985;-67
2023/02/01 01:13:19;;;;;;;;;;;;;;;4.84;100.00;101859.44;5000038;28;20003;-67
2023/02/01 01:15:46;;;;;;;;;;;;;;;4.83;100.00;101863.81;5003172;28;20024;-67
2023/02/01 01:18:12;;;;;;;;;;;;;;;4.85;100.00;101859.38;4997051;28;19931;-67
2023/02/01 01:20:40;;;;;;;;;;;;;;;4.87;100.00;101848.91;5002500;28;20382;-67
2023/02/01 01:23:07;;;;;;;;;;;;;;;4.86;100.00;101848.06;4994257;28;20354;-66
2023/02/01 01:25:40;;;;;;;;;;;;;;;4.83;100.00;101843.03;5004803;28;19929;-67
2023/02/01 01:28:06;;;;;;;;;;;;;;;4.84;100.00;101846.47;5004560;28;19930;-67
2023/02/01 01:30:34;;;;;;;;;;;;;;;4.83;100.00;101843.03;4988566;28;19937;-67
2023/02/01 01:33:00;;;;;;;;;;;;;;;4.85;100.00;101840.34;4998426;28;19934;-67
2023/02/01 01:35:28;;;;;;;;;;;;;;;4.84;100.00;101838.66;4996961;28;20401;-67
2023/02/01 01:37:54;;;;;;;;;;;;;;;4.87;100.00;101835.91;5004651;28;19972;-67
2023/02/01 01:40:21;;;;;;;;;;;;;;;4.86;100.00;101824.66;4998064;28;20112;-67
2023/02/01 01:42:48;;;;;;;;;;;;;;;4.87;100.00;101831.53;5001205;28;20000;-67
2023/02/01 01:45:26;;;;;;;;;;;;;;;4.90;100.00;101828.78;4998395;28;19930;-67
2023/02/01 01:47:54;;;;;;;;;;;;;;;4.90;100.00;101820.97;5006113;28;20351;-67
2023/02/01 01:50:24;;;;;;;;;;;;;;;4.90;100.00;101831.38;5008055;28;20332;-67
2023/02/01 01:52:51;;;;;;;;;;;;;;;4.92;100.00;101834.72;4999875;28;19929;-67
2023/02/01 01:55:20;;;;;;;;;;;;;;;4.91;100.00;101824.41;5000356;28;20200;-67
2023/02/01 01:57:49;;;;;;;;;;;;;;;4.90;100.00;101822.72;4969199;28;19929;-67
2023/02/01 02:00:17;;;;;;;;;;;;;;;4.88;100.00;101827.16;5008310;28;19984;-66
2023/02/01 02:02:46;;;;;;;;;;;;;;;4.87;100.00;101828.94;5002315;28;19930;-67
2023/02/01 02:05:13;;;;;;;;;;;;;;;4.85;100.00;101822.16;5001844;28;20008;-67
2023/02/01 02:07:41;;;;;;;;;;;;;;;4.85;100.00;101811.75;5008507;28;19930;-67
2023/02/01 02:10:10;;;;;;;;;;;;;;;4.83;100.00;101811.84;4995855;28;19945;-67
2023/02/01 02:12:41;;;;;;;;;;;;;;;4.81;100.00;101805.06;5004841;28;20382;-67
2023/02/01 02:15:09;;;;;;;;;;;;;;;4.75;100.00;101811.41;5000347;28;20406;-67
2023/02/01 02:17:39;;;;;;;;;;;;;;;4.73;100.00;101802.88;5008235;28;20353;-67
2023/02/01 02:20:24;;;;;;;;;;;;;;;4.70;100.00;101809.06;5000966;28;19929;-67
2023/02/01 02:22:53;;;;;;;;;;;;;;;4.72;100.00;101798.56;5002473;28;19960;-67
2023/02/01 02:25:22;;;;;;;;;;;;;;;4.73;100.00;101800.28;5000988;28;19936;-67
2023/02/01 02:28:07;;;;;;;;;;;;;;;4.71;100.00;101804.72;5002192;28;20306;-67
2023/02/01 02:30:49;;;;;;;;;;;;;;;4.75;100.00;101807.06;5003530;28;19937;-67
2023/02/01 02:33:16;;;;;;;;;;;;;;;4.77;100.00;101795.75;4995052;28;20025;-67
2023/02/01 02:35:49;;;;;;;;;;;;;;;4.78;100.00;101798.25;5003103;28;19967;-67
2023/02/01 02:38:41;;;;;;;;;;;;;;;4.79;100.00;101797.31;4990600;28;19929;-67
2023/02/01 02:55:33;;;;;;;;;;;;;;;4.72;100.00;101778.66;5000025;28;19936;-67
2023/02/01 03:06:18;;;;;;;;;;;;;;;4.73;100.00;101769.91;4996942;28;19933;-66
2023/02/01 03:08:45;;;;;;;;;;;;;;;4.75;100.00;101770.66;5007157;28;19929;-65
2023/02/01 03:11:14;;;;;;;;;;;;;;;4.75;100.00;101775.03;5006273;28;19937;-66
2023/02/01 03:13:51;;;;;;;;;;;;;;;4.76;100.00;101761.09;4994088;28;19961;-65
2023/02/01 03:16:18;;;;;;;;;;;;;;;4.79;100.00;101749.72;4995482;28;19934;-66
2023/02/01 03:18:56;;;;;;;;;;;;;;;4.78;100.00;101733.25;4995645;28;19972;-65
2023/02/01 03:21:31;;;;;;;;;;;;;;;4.78;100.00;101730.66;5000319;28;20582;-65
2023/02/01 03:24:02;;;;;;;;;;;;;;;4.79;100.00;101716.75;4996226;28;19925;-65
2023/02/01 03:26:30;;;;;;;;;;;;;;;4.88;100.00;101736.16;5004446;28;19933;-62
2023/02/01 03:29:05;;;;;;;;;;;;;;;4.88;100.00;101754.38;5000514;28;19930;-63
2023/02/01 03:31:31;;;;;;;;;;;;;;;4.89;100.00;101775.09;5000382;28;20441;-62
2023/02/01 03:33:58;;;;;;;;;;;;;;;4.93;100.00;101767.97;4998671;28;19930;-63
2023/02/01 03:36:35;;;;;;;;;;;;;;;4.94;100.00;101762.69;4989307;28;19935;-63
2023/02/01 03:39:05;;;;;;;;;;;;;;;4.91;100.00;101752.44;5000468;28;19984;-64
2023/02/01 03:41:40;;;;;;;;;;;;;;;4.92;100.00;101754.13;4997968;28;19972;-63
2023/02/01 03:44:42;;;;;;;;;;;;;;;4.97;100.00;101755.63;5002427;28;20354;-62
2023/02/01 03:47:21;;;;;;;;;;;;;;;4.93;100.00;101752.34;4920217;29;20699;-62
2023/02/01 03:49:50;;;;;;;;;;;;;;;4.96;100.00;101765.19;4996777;28;19929;-63
2023/02/01 03:52:37;;;;;;;;;;;;;;;5.00;100.00;101758.91;5001109;28;20458;-63
2023/02/01 03:55:04;;;;;;;;;;;;;;;5.02;100.00;101769.19;5004652;28;19930;-62
2023/02/01 03:57:32;;;;;;;;;;;;;;;5.07;100.00;101773.22;4989373;28;19930;-63
2023/02/01 04:00:19;;;;;;;;;;;;;;;5.06;100.00;101768.94;4979446;28;20341;-62
2023/02/01 04:02:46;;;;;;;;;;;;;;;5.05;100.00;101764.66;5003937;28;19984;-63
2023/02/01 04:05:13;;;;;;;;;;;;;;;4.97;100.00;101758.22;4997066;28;20717;-62
2023/02/01 04:07:40;;;;;;;;;;;;;;;5.00;100.00;101764.09;5006288;28;19941;-63
2023/02/01 04:10:07;;;;;;;;;;;;;;;4.97;100.00;101766.84;4976571;28;19929;-63
2023/02/01 04:12:33;;;;;;;;;;;;;;;4.94;100.00;101760.06;5002768;28;20405;-62
2023/02/01 04:14:59;;;;;;;;;;;;;;;4.91;100.00;101765.44;4999649;28;19940;-63
2023/02/01 04:17:26;;;;;;;;;;;;;;;4.91;100.00;101757.63;5002170;28;20418;-64
2023/02/01 04:19:52;;;;;;;;;;;;;;;4.89;100.00;101753.47;5005614;28;20444;-63
2023/02/01 04:22:20;;;;;;;;;;;;;;;4.85;100.00;101755.38;5000411;28;19973;-64
2023/02/01 04:24:47;;;;;;;;;;;;;;;4.86;100.00;101754.47;5006203;28;19936;-64
2023/02/01 04:27:13;;;;;;;;;;;;;;;4.89;100.00;101759.50;4992412;28;20024;-63
2023/02/01 04:29:39;;;;;;;;;;;;;;;4.88;100.00;101759.56;5003964;28;19995;-62
2023/02/01 04:32:06;;;;;;;;;;;;;;;4.92;100.00;101761.06;4998490;28;19936;-63
2023/02/01 04:34:32;;;;;;;;;;;;;;;4.87;100.00;101750.94;4994832;28;19936;-63
2023/02/01 04:36:58;;;;;;;;;;;;;;;4.92;100.00;101755.88;5006333;28;19934;-62
2023/02/01 04:39:25;;;;;;;;;;;;;;;4.94;100.00;101761.84;4990699;28;19984;-62
2023/02/01 04:41:51;;;;;;;;;;;;;;;4.94;100.00;101778.28;5000105;28;20382;-64
2023/02/01 04:44:18;;;;;;;;;;;;;;;5.01;100.00;101770.13;4997646;28;20349;-63
2023/02/01 04:46:45;;;;;;;;;;;;;;;5.08;100.00;101761.91;4986879;28;19926;-63
2023/02/01 04:49:12;;;;;;;;;;;;;;;5.12;100.00;101760.78;5004855;28;20358;-63
2023/02/01 04:51:39;;;;;;;;;;;;;;;5.16;100.00;101756.25;5001049;28;19925;-63
2023/02/01 04:54:06;;;;;;;;;;;;;;;5.24;100.00;101763.63;5002372;28;20408;-63
2023/02/01 04:56:34;;;;;;;;;;;;;;;5.29;100.00;101762.44;4991556;28;19930;-64
2023/02/01 04:59:02;;;;;;;;;;;;;;;5.35;100.00;101762.06;5006209;28;19936;-64
2023/02/01 05:01:28;;;;;;;;;;;;;;;5.40;100.00;101761.78;5000747;28;19930;-64
2023/02/01 05:03:55;;;;;;;;;;;;;;;5.44;100.00;101762.44;5006297;28;19975;-64
2023/02/01 05:06:22;;;;;;;;;;;;;;;5.48;100.00;101769.16;5003092;28;20169;-64
2023/02/01 05:08:48;;;;;;;;;;;;;;;5.55;100.00;101767.88;4991112;28;19932;-64
2023/02/01 05:13:59;;;;;;;;;;;;;;;5.62;100.00;101769.16;4995417;28;19952;-64
2023/02/01 05:16:27;;;;;;;;;;;;;;;5.63;100.00;101762.22;5004418;28;20308;-65
2023/02/01 05:18:54;;;;;;;;;;;;;;;5.66;100.00;101749.81;4996721;28;19929;-64
2023/02/01 05:21:20;;;;;;;;;;;;;;;5.69;100.00;101751.44;5000412;28;19939;-64
2023/02/01 05:26:32;;;;;;;;;;;;;;;5.74;100.00;101741.56;5004467;28;20341;-65
2023/02/01 05:28:58;;;;;;;;;;;;;;;5.73;100.00;101739.91;5004855;28;20025;-65
2023/02/01 05:31:24;;;;;;;;;;;;;;;5.75;100.00;101735.44;4998136;28;19930;-65
2023/02/01 05:33:51;;;;;;;;;;;;;;;5.78;100.00;101742.22;5004791;28;19929;-67
2023/02/01 05:36:17;;;;;;;;;;;;;;;5.76;100.00;101734.50;4991950;28;19941;-66
2023/02/01 05:38:44;;;;;;;;;;;;;;;5.83;100.00;101735.81;5002339;28;19936;-65
2023/02/01 05:41:10;;;;;;;;;;;;;;;5.85;100.00;101736.53;4995560;28;19952;-65
2023/02/01 05:43:36;;;;;;;;;;;;;;;5.87;100.00;101754.69;5005805;28;20055;-65
2023/02/01 05:46:03;;;;;;;;;;;;;;;5.87;100.00;101747.72;5004282;28;19929;-65
2023/02/01 05:48:29;;;;;;;;;;;;;;;5.90;100.00;101763.16;4996669;28;19926;-65
2023/02/01 05:50:56;;;;;;;;;;;;;;;5.88;100.00;101774.56;5000167;28;20012;-65
2023/02/01 05:53:22;;;;;;;;;;;;;;;5.90;100.00;101775.31;4994548;28;19930;-65
2023/02/01 05:55:48;;;;;;;;;;;;;;;5.93;100.00;101762.94;5005694;28;20405;-65
2023/02/01 05:58:15;;;;;;;;;;;;;;;5.97;100.00;101766.25;4997365;28;19945;-65
2023/02/01 06:00:41;;;;;;;;;;;;;;;6.01;100.00;101766.91;4993090;28;19929;-65
2023/02/01 06:03:07;;;;;;;;;;;;;;;6.02;100.00;101766.81;5000830;28;19930;-64
2023/02/01 06:05:34;;;;;;;;;;;;;;;6.04;100.00;101764.94;4986398;28;19937;-66
2023/02/01 06:08:00;;;;;;;;;;;;;;;6.03;100.00;101767.63;4995476;28;19937;-65
2023/02/01 06:10:26;;;;;;;;;;;;;;;6.04;100.00;101774.53;5001051;28;20342;-64
2023/02/01 06:12:52;;;;;;;;;;;;;;;6.05;100.00;101771.00;4999799;28;20351;-66
2023/02/01 06:15:19;;;;;;;;;;;;;;;6.05;100.00;101765.78;5002845;28;19948;-65
2023/02/01 06:17:45;;;;;;;;;;;;;;;6.06;100.00;101762.25;5000242;28;19929;-66
2023/02/01 06:20:13;;;;;;;;;;;;;;;6.07;100.00;101762.13;5001222;28;20044;-65
2023/02/01 06:22:39;;;;;;;;;;;;;;;6.05;100.00;101764.00;4998907;28;19947;-65
2023/02/01 06:25:07;;;;;;;;;;;;;;;6.04;100.00;101769.34;5005453;28;19930;-65
2023/02/01 06:27:34;;;;;;;;;;;;;;;6.08;100.00;101761.22;4999513;28;20305;-65
2023/02/01 06:30:00;;;;;;;;;;;;;;;6.10;100.00;101755.94;5007147;28;19983;-65
2023/02/01 06:32:26;;;;;;;;;;;;;;;6.06;100.00;101763.09;5001747;28;19933;-65
2023/02/01 06:34:53;;;;;;;;;;;;;;;6.07;100.00;101754.31;5002269;28;20708;-64
2023/02/01 06:37:19;;;;;;;;;;;;;;;6.06;100.00;101768.28;5009160;28;20435;-65
2023/02/01 06:39:46;;;;;;;;;;;;;;;6.07;100.00;101769.97;5004418;28;19952;-65
2023/02/01 06:42:12;;;;;;;;;;;;;;;6.04;100.00;101769.34;5009301;28;19933;-65
2023/02/01 06:44:39;;;;;;;;;;;;;;;6.08;100.00;101778.63;4999499;28;20305;-65
2023/02/01 06:47:05;;;;;;;;;;;;;;;6.08;100.00;101779.47;5002430;28;19929;-65
2023/02/01 06:49:34;;;;;;;;;;;;;;;6.08;100.00;101783.84;5006255;28;19937;-66
2023/02/01 06:52:01;;;;;;;;;;;;;;;6.10;100.00;101776.78;5002266;28;19987;-66
2023/02/01 06:54:27;;;;;;;;;;;;;;;6.07;100.00;101782.16;5005812;28;20297;-65
2023/02/01 06:56:53;;;;;;;;;;;;;;;6.08;100.00;101786.44;4999426;28;19929;-67
2023/02/01 06:59:20;;;;;;;;;;;;;;;6.14;100.00;101781.69;5004758;28;19930;-64
2023/02/01 07:01:46;;;;;;;;;;;;;;;6.14;100.00;101781.69;4997149;28;20527;-66
2023/02/01 07:04:13;;;;;;;;;;;;;;;6.11;100.00;101779.25;5008462;28;19968;-66
2023/02/01 07:06:39;;;;;;;;;;;;;;;6.11;100.00;101771.44;5008134;28;19929;-65
2023/02/01 07:09:06;;;;;;;;;;;;;;;6.10;100.00;101789.78;5000659;28;19934;-65
2023/02/01 07:11:33;;;;;;;;;;;;;;;6.14;100.00;101791.28;5009067;28;20040;-65
2023/02/01 07:13:59;;;;;;;;;;;;;;;6.16;100.00;101781.59;4989102;28;19929;-65
2023/02/01 07:16:26;;;;;;;;;;;;;;;6.16;100.00;101791.19;4998520;28;19933;-66
2023/02/01 07:18:52;;;;;;;;;;;;;;;6.13;100.00;101787.84;4982399;28;20024;-65
2023/02/01 07:21:19;;;;;;;;;;;;;;;6.14;100.00;101793.88;5006370;28;19929;-66
2023/02/01 07:23:46;;;;;;;;;;;;;;;6.11;100.00;101794.88;4999073;28;19929;-66
2023/02/01 07:26:13;;;;;;;;;;;;;;;6.13;100.00;101786.97;4988032;28;19995;-66
2023/02/01 07:28:40;;;;;;;;;;;;;;;6.08;100.00;101794.25;4998773;28;19925;-67
2023/02/01 07:31:15;;;;;;;;;;;;;;;6.03;100.00;101797.13;5000459;28;19960;-65
2023/02/01 07:33:41;;;;;;;;;;;;;;;6.07;100.00;101780.38;5007805;28;19933;-66
2023/02/01 07:36:11;;;;;;;;;;;;;;;6.01;100.00;101787.75;5000498;28;19991;-65
2023/02/01 07:38:37;;;;;;;;;;;;;;;6.04;100.00;101795.38;5001013;28;19930;-66
2023/02/01 07:41:04;;;;;;;;;;;;;;;6.03;100.00;101786.69;4998822;28;19952;-65
2023/02/01 07:43:31;;;;;;;;;;;;;;;5.99;100.00;101781.78;4984418;28;19930;-66
2023/02/01 07:45:57;;;;;;;;;;;;;;;6.01;100.00;101782.53;5006712;28;19929;-66
2023/02/01 07:48:25;;;;;;;;;;;;;;;5.99;100.00;101789.59;4994453;28;19929;-67
2023/02/01 07:51:08;;;;;;;;;;;;;;;6.01;100.00;101795.56;5007440;28;19948;-67
2023/02/01 07:53:35;;;;;;;;;;;;;;;6.03;100.00;101788.47;5001544;28;19929;-65
2023/02/01 07:56:02;;;;;;;;;;;;;;;6.03;100.00;101791.09;5002374;28;19973;-66
2023/02/01 07:58:28;;;;;;;;;;;;;;;5.96;100.00;101793.22;4990227;28;19940;-65
2023/02/01 08:03:40;;;;;;;;;;;;;;;5.92;100.00;101782.13;5006824;28;20340;-64
2023/02/01 08:06:06;;;;;;;;;;;;;;;5.92;100.00;101792.53;4997087;28;19929;-65
2023/02/01 08:08:33;;;;;;;;;;;;;;;5.94;100.00;101790.69;5004445;28;19930;-65
2023/02/01 08:11:00;;;;;;;;;;;;;;;5.99;100.00;101800.84;4993007;28;19930;-66
2023/02/01 08:13:26;;;;;;;;;;;;;;;5.99;100.00;101795.63;5005602;28;19937;-64
2023/02/01 08:15:57;;;;;;;;;;;;;;;5.96;100.00;101797.59;4998862;28;19933;-64
2023/02/01 08:18:23;;;;;;;;;;;;;;;5.97;100.00;101799.28;4989661;28;19932;-65
2023/02/01 08:20:50;;;;;;;;;;;;;;;5.99;100.00;101797.41;5007744;28;19930;-65
2023/02/01 08:23:17;;;;;;;;;;;;;;;5.98;100.00;101804.41;4996771;28;19930;-66
2023/02/01 08:25:44;;;;;;;;;;;;;;;5.97;100.00;101810.53;4998770;28;19926;-66
2023/02/01 08:28:10;;;;;;;;;;;;;;;5.99;100.00;101810.44;4997828;28;19929;-65
2023/02/01 08:30:38;;;;;;;;;;;;;;;5.96;100.00;101808.84;5006902;28;19930;-65
2023/02/01 08:33:06;;;;;;;;;;;;;;;5.96;100.00;101818.41;4993200;28;20408;-66
2023/02/01 08:35:34;;;;;;;;;;;;;;;5.95;100.00;101807.16;5005370;28;19936;-65
2023/02/01 08:38:09;;;;;;;;;;;;;;;5.94;100.00;101808.91;4997743;28;19925;-67
2023/02/01 08:40:35;;;;;;;;;;;;;;;5.99;100.00;101800.00;4996553;28;19988;-65
2023/02/01 08:43:01;;;;;;;;;;;;;;;6.00;100.00;101793.88;5004924;28;19934;-66
2023/02/01 08:45:31;;;;;;;;;;;;;;;5.97;100.00;101794.91;4992018;28;19929;-65
2023/02/01 08:47:58;;;;;;;;;;;;;;;5.98;100.00;101808.75;5006057;28;20400;-67
2023/02/01 08:50:25;;;;;;;;;;;;;;;6.02;100.00;101803.28;4992585;28;20003;-66
2023/02/01 08:52:52;;;;;;;;;;;;;;;6.07;100.00;101803.81;4981857;28;19929;-65
2023/02/01 08:55:19;;;;;;;;;;;;;;;6.13;100.00;101797.41;4997639;28;20024;-66
2023/02/01 08:57:45;;;;;;;;;;;;;;;6.18;100.00;101795.38;5000205;28;20542;-65
2023/02/01 09:00:13;;;;;;;;;;;;;;;6.21;100.00;101799.53;5004701;28;20378;-66
2023/02/01 09:02:39;;;;;;;;;;;;;;;6.33;100.00;101794.44;4988696;28;19929;-65
2023/02/01 09:05:06;;;;;;;;;;;;;;;6.39;100.00;101779.31;5000848;28;19930;-65
2023/02/01 09:07:32;;;;;;;;;;;;;;;6.41;100.00;101778.31;4996590;28;19953;-66
2023/02/01 09:10:00;;;;;;;;;;;;;;;6.45;100.00;101781.53;5005872;28;19934;-66
2023/02/01 09:12:31;;;;;;;;;;;;;;;6.53;100.00;101790.56;5000951;28;19938;-65
2023/02/01 09:14:59;;;;;;;;;;;;;;;6.58;100.00;101785.06;4997851;28;20370;-65
2023/02/01 09:17:26;;;;;;;;;;;;;;;6.64;100.00;101774.25;4985655;28;20549;-65
2023/02/01 09:19:57;;;;;;;;;;;;;;;6.67;100.00;101781.88;4992281;28;20715;-65
2023/02/01 09:22:24;;;;;;;;;;;;;;;6.65;100.00;101781.13;5002758;28;20433;-66
2023/02/01 09:24:51;;;;;;;;;;;;;;;6.61;100.00;101784.88;4974433;28;19930;-66
2023/02/01 09:27:20;;;;;;;;;;;;;;;6.62;100.00;101768.28;5001025;28;20401;-66
2023/02/01 09:29:52;;;;;;;;;;;;;;;6.60;100.00;101779.75;5001085;28;19929;-66
2023/02/01 09:32:20;;;;;;;;;;;;;;;6.61;100.00;101771.00;5000686;28;19972;-67
2023/02/01 09:34:46;;;;;;;;;;;;;;;6.68;100.00;101752.28;4996386;28;19929;-66
2023/02/01 09:37:12;;;;;;;;;;;;;;;6.62;100.00;101762.25;4997820;28;19934;-67
2023/02/01 09:39:40;;;;;;;;;;;;;;;6.69;100.00;101753.09;5003769;28;19929;-67
2023/02/01 09:42:20;;;;;;;;;;;;;;;6.77;100.00;101763.88;4995171;28;19930;-66
2023/02/01 09:45:00;;;;;;;;;;;;;;;6.82;100.00;101782.69;5004553;28;19929;-66
2023/02/01 09:47:27;;;;;;;;;;;;;;;6.89;100.00;101768.28;4955425;28;20294;-66
2023/02/01 09:50:06;;;;;;;;;;;;;;;7.03;100.00;101766.56;4996699;28;19937;-65
2023/02/01 09:52:42;;;;;;;;;;;;;;;7.07;100.00;101766.25;4991641;28;19938;-67
2023/02/01 09:55:15;;;;;;;;;;;;;;;7.08;100.00;101791.41;4999000;28;19930;-65
2023/02/01 09:58:00;;;;;;;;;;;;;;;7.15;100.00;101768.38;5001153;28;19935;-67
2023/02/01 10:00:33;;;;;;;;;;;;;;;7.22;100.00;101768.81;4985081;28;19926;-65
2023/02/01 10:02:59;;;;;;;;;;;;;;;7.27;100.00;101761.50;4996523;28;19930;-65
2023/02/01 10:05:41;;;;;;;;;;;;;;;7.29;100.00;101759.63;5002715;28;19929;-65
2023/02/01 10:08:26;;;;;;;;;;;;;;;7.23;100.00;101773.06;5010516;28;19929;-65
2023/02/01 10:10:56;;;;;;;;;;;;;;;7.24;100.00;101775.59;5005168;28;19930;-66
2023/02/01 10:13:22;;;;;;;;;;;;;;;7.23;100.00;101773.94;5005857;28;19937;-67
2023/02/01 10:15:57;;;;;;;;;;;;;;;7.21;100.00;101767.13;4999660;28;19929;-65
2023/02/01 10:18:26;;;;;;;;;;;;;;;7.09;100.00;101761.78;5014772;28;19921;-67
2023/02/01 10:21:02;;;;;;;;;;;;;;;7.14;100.00;101758.88;5019512;28;19940;-67
2023/02/01 10:23:31;;;;;;;;;;;;;;;7.08;100.00;101772.34;5002327;28;19936;-66
2023/02/01 10:26:00;;;;;;;;;;;;;;;7.15;100.00;101764.94;5010579;28;19933;-66
2023/02/01 10:28:26;;;;;;;;;;;;;;;7.13;100.00;101765.00;4999991;28;20043;-65
2023/02/01 10:30:56;;;;;;;;;;;;;;;7.19;100.00;101761.16;4994671;28;19936;-65
2023/02/01 10:33:27;;;;;;;;;;;;;;;7.21;100.00;101767.94;5005352;28;19929;-66
2023/02/01 10:35:58;;;;;;;;;;;;;;;7.16;100.00;101764.00;5009147;28;20561;-65
2023/02/01 10:38:26;;;;;;;;;;;;;;;7.16;100.00;101748.34;4998982;28;20293;-64
2023/02/01 10:40:54;;;;;;;;;;;;;;;7.05;100.00;101744.66;5003174;28;19956;-61
2023/02/01 10:43:21;;;;;;;;;;;;;;;6.97;100.00;101746.09;4995690;28;20481;-65
2023/02/01 10:45:47;;;;;;;;;;;;;;;6.93;100.00;101750.69;4999337;28;19929;-63
2023/02/01 10:48:14;;;;;;;;;;;;;;;6.93;100.00;101748.91;5010297;28;19941;-65
2023/02/01 10:50:46;;;;;;;;;;;;;;;6.87;100.00;101743.25;5004063;28;19929;-64
2023/02/01 10:53:31;;;;;;;;;;;;;;;6.88;100.00;101743.16;5008379;28;20369;-64
2023/02/01 10:55:57;;;;;;;;;;;;;;;6.88;100.00;101753.59;4986733;28;19926;-65
2023/02/01 10:58:29;;;;;;;;;;;;;;;6.86;100.00;101742.44;4999874;28;19955;-65
2023/02/01 11:00:55;;;;;;;;;;;;;;;6.82;100.00;101753.13;5007603;28;19930;-67
2023/02/01 11:03:39;;;;;;;;;;;;;;;6.73;100.00;101752.78;5002793;28;19934;-65
2023/02/01 11:06:24;;;;;;;;;;;;;;;6.66;100.00;101759.31;4974992;28;19930;-64
2023/02/01 11:08:52;;;;;;;;;;;;;;;6.62;100.00;101755.25;4999338;28;19935;-67
2023/02/01 11:11:19;;;;;;;;;;;;;;;6.59;100.00;101736.38;4993042;28;20354;-67
2023/02/01 11:13:51;;;;;;;;;;;;;;;6.59;100.00;101737.22;4985586;28;20680;-66
2023/02/01 11:16:18;;;;;;;;;;;;;;;6.52;100.00;101741.97;5006298;28;19925;-65
2023/02/01 11:18:46;;;;;;;;;;;;;;;6.54;100.00;101728.84;5002095;28;19930;-64
2023/02/01 11:21:14;;;;;;;;;;;;;;;6.57;100.00;101725.22;5006027;28;19926;-65
2023/02/01 11:23:42;;;;;;;;;;;;;;;6.65;100.00;101715.97;5000790;28;19929;-66
2023/02/01 11:26:13;;;;;;;;;;;;;;;6.61;100.00;101714.50;4997655;28;19929;-64
2023/02/01 11:28:43;;;;;;;;;;;;;;;6.63;100.00;101706.56;5000028;28;19930;-62
2023/02/01 11:31:12;;;;;;;;;;;;;;;6.68;100.00;101702.75;5000459;28;20432;-64
2023/02/01 11:33:43;;;;;;;;;;;;;;;6.70;100.00;101707.81;5007643;28;19976;-62
2023/02/01 11:36:14;;;;;;;;;;;;;;;6.68;100.00;101705.34;5001207;28;20356;-64
2023/02/01 11:38:45;;;;;;;;;;;;;;;6.71;100.00;101702.53;5001266;28;19941;-65
2023/02/01 11:41:13;;;;;;;;;;;;;;;6.70;100.00;101702.63;4994697;28;20024;-64
2023/02/01 11:43:57;;;;;;;;;;;;;;;6.72;100.00;101721.59;5003516;28;19940;-66
2023/02/01 11:46:28;;;;;;;;;;;;;;;6.72;100.00;101709.41;5002888;28;20599;-65
2023/02/01 11:48:56;;;;;;;;;;;;;;;6.75;100.00;101716.19;4999176;28;20004;-66
2023/02/01 11:51:33;;;;;;;;;;;;;;;6.68;100.00;101715.78;4999683;28;19972;-64
2023/02/01 11:54:10;;;;;;;;;;;;;;;6.69;100.00;101719.22;4991180;28;19929;-64
2023/02/01 11:56:42;;;;;;;;;;;;;;;6.68;100.00;101714.91;4998837;28;20417;-65
2023/02/01 11:59:19;;;;;;;;;;;;;;;6.65;100.00;101705.53;4999943;28;19925;-65
2023/02/01 12:01:58;;;;;;;;;;;;;;;6.69;100.00;101720.03;5006404;28;19991;-65
2023/02/01 12:04:38;;;;;;;;;;;;;;;6.70;100.00;101700.88;4995025;28;19991;-65
2023/02/01 12:07:14;;;;;;;;;;;;;;;6.75;100.00;101704.94;4991276;28;20505;-65
2023/02/01 12:09:46;;;;;;;;;;;;;;;6.79;100.00;101689.00;4992291;28;19930;-68
2023/02/01 12:12:16;;;;;;;;;;;;;;;6.81;100.00;101691.50;5002564;28;19965;-65
2023/02/01 12:14:48;;;;;;;;;;;;;;;6.89;100.00;101700.47;5005163;28;19936;-65
2023/02/01 12:17:14;;;;;;;;;;;;;;;6.83;100.00;101695.66;4993387;28;19936;-65
2023/02/01 12:19:44;;;;;;;;;;;;;;;6.93;100.00;101691.50;5002412;28;19930;-65
2023/02/01 12:22:29;;;;;;;;;;;;;;;6.90;100.00;101710.00;4989900;28;19929;-64
2023/02/01 12:25:11;;;;;;;;;;;;;;;6.99;100.00;101699.88;5006011;28;19925;-64
2023/02/01 12:27:40;;;;;;;;;;;;;;;7.04;100.00;101692.59;5001826;28;19937;-64
2023/02/01 12:30:10;;;;;;;;;;;;;;;7.06;100.00;101690.72;4997720;28;19935;-64
2023/02/01 12:33:00;;;;;;;;;;;;;;;7.12;100.00;101695.53;4995284;28;19925;-64
2023/02/01 12:35:38;;;;;;;;;;;;;;;7.13;100.00;101698.03;4996031;28;19972;-62
2023/02/01 12:38:05;;;;;;;;;;;;;;;7.12;100.00;101672.88;5005131;28;19929;-64
2023/02/01 12:40:39;;;;;;;;;;;;;;;7.18;100.00;101692.50;4996071;28;20468;-67
2023/02/01 12:43:25;;;;;;;;;;;;;;;7.26;100.00;101689.38;5007501;28;19934;-64
2023/02/01 12:45:54;;;;;;;;;;;;;;;7.30;100.00;101686.44;4989131;28;20044;-66
2023/02/01 12:48:40;;;;;;;;;;;;;;;7.35;100.00;101685.28;5000093;28;19926;-66
2023/02/01 12:51:15;;;;;;;;;;;;;;;7.33;100.00;101674.94;4998183;28;19988;-65
2023/02/01 12:53:47;;;;;;;;;;;;;;;7.38;100.00;101690.31;5001481;28;19962;-69
2023/02/01 12:56:16;;;;;;;;;;;;;;;7.41;100.00;101685.72;4998127;28;19925;-68
2023/02/01 12:58:48;;;;;;;;;;;;;;;7.47;100.00;101681.88;5007662;28;20456;-66
2023/02/01 13:01:14;;;;;;;;;;;;;;;7.48;100.00;101673.91;4994381;28;20028;-63
2023/02/01 13:04:01;;;;;;;;;;;;;;;7.47;100.00;101667.03;4997176;28;19936;-66
2023/02/01 13:06:27;;;;;;;;;;;;;;;7.49;100.00;101675.59;4977876;28;19930;-67
2023/02/01 13:08:53;;;;;;;;;;;;;;;7.52;100.00;101653.66;4997900;28;19925;-65
2023/02/01 13:11:30;;;;;;;;;;;;;;;7.50;100.00;101677.25;5008476;28;20469;-65
2023/02/01 13:14:15;;;;;;;;;;;;;;;7.52;100.00;101662.31;4995260;28;20374;-65
2023/02/01 13:16:47;;;;;;;;;;;;;;;7.50;100.00;101681.66;5003290;28;19930;-67
2023/02/01 13:19:17;;;;;;;;;;;;;;;7.47;100.00;101671.44;5001276;28;19976;-66